Terminal Aerodrome Forecast
Issued by NWS

Home | Current Version | Previous Version | Text Only | Print | Product List | Glossary On
Versions: 1 2 3 4 5 6 7 8 9 10 11 12 13 14 15 16 17 18 19 20 21
000
FTAK31 PAJN 271741
TAFAYA
TAF
PAYA 271741Z 2718/2818 09005KT P6SM VCSH FEW040 OVC050
      TEMPO 2718/2721 VRB03KT 6SM -SHRA BKN030 OVC040
     FM280300 07004KT P6SM BKN050 BKN070
     FM280900 00000KT P6SM SKC
      AMD LTD TO CLD VIS AND WIND 2801/2809=

USA.gov is the U.S. government's official web portal to all federal, state and local government web resources and services.